createdAt,value
2023-01-09T00:02:13.816Z,91.48
2023-01-09T00:04:40.420Z,91.15
2023-01-09T00:07:06.917Z,91.45
2023-01-09T00:09:39.392Z,91.58
2023-01-09T00:12:06.015Z,91.29
2023-01-09T00:14:53.979Z,91.07
2023-01-09T00:17:30.143Z,91.22
2023-01-09T00:24:19.278Z,90.98
2023-01-09T00:26:49.679Z,90.90
2023-01-09T00:29:16.063Z,91.15
2023-01-09T00:31:54.912Z,91.01
2023-01-09T00:34:21.397Z,91.02
2023-01-09T00:36:48.641Z,91.34
2023-01-09T00:39:16.118Z,90.87
2023-01-09T00:41:50.098Z,90.87
2023-01-09T00:44:33.217Z,90.90
2023-01-09T00:47:05.215Z,91.07
2023-01-09T00:49:50.901Z,91.05
2023-01-09T00:52:31.322Z,90.77
2023-01-09T00:55:00.090Z,91.05
2023-01-09T00:57:26.553Z,90.94
2023-01-09T00:59:53.199Z,91.34
2023-01-09T01:02:21.846Z,90.85
2023-01-09T01:05:14.315Z,90.90
2023-01-09T01:07:41.455Z,91.00
2023-01-09T01:10:16.283Z,90.90
2023-01-09T01:12:43.889Z,91.35
2023-01-09T01:15:10.845Z,91.28
2023-01-09T01:17:39.021Z,91.50
2023-01-09T01:20:08.241Z,91.30
2023-01-09T01:22:47.046Z,91.20
2023-01-09T01:25:15.143Z,91.25
2023-01-09T01:27:41.520Z,91.43
2023-01-09T01:30:09.828Z,91.22
2023-01-09T01:32:36.592Z,91.56
2023-01-09T01:35:03.667Z,91.42
2023-01-09T01:37:31.352Z,91.94
2023-01-09T01:40:01.985Z,91.51
2023-01-09T01:42:28.317Z,91.11
2023-01-09T01:45:15.180Z,91.54
2023-01-09T01:47:50.729Z,91.12
2023-01-09T01:51:01.104Z,91.33
2023-01-09T01:53:49.383Z,91.52
2023-01-09T01:56:20.157Z,91.54
2023-01-09T01:58:55.088Z,91.64
2023-01-09T02:01:23.285Z,91.65
2023-01-09T02:04:01.849Z,91.27
2023-01-09T02:06:30.405Z,91.83
2023-01-09T02:08:57.260Z,91.28
2023-01-09T02:11:23.751Z,91.56
2023-01-09T02:13:50.353Z,91.81
2023-01-09T02:16:47.942Z,91.68
2023-01-09T02:19:23.573Z,91.71
2023-01-09T02:22:08.835Z,91.68
2023-01-09T02:25:18.966Z,92.12
2023-01-09T02:28:07.235Z,92.04
2023-01-09T02:30:51.851Z,92.14
2023-01-09T02:33:30.721Z,92.43
2023-01-09T02:36:48.707Z,92.37
2023-01-09T02:39:26.080Z,92.37
2023-01-09T02:42:05.848Z,92.11
2023-01-09T02:44:36.034Z,92.43
2023-01-09T02:47:27.585Z,91.87
2023-01-09T02:49:58.182Z,92.26
2023-01-09T02:52:56.741Z,92.28
2023-01-09T02:55:41.900Z,92.23
2023-01-09T02:58:50.717Z,92.25
2023-01-09T03:01:38.727Z,91.98
2023-01-09T03:04:28.038Z,92.02
2023-01-09T03:07:22.783Z,92.15
2023-01-09T03:09:54.009Z,92.20
2023-01-09T03:12:24.672Z,92.33
2023-01-09T03:14:54.931Z,92.18
2023-01-09T03:17:43.579Z,91.84
2023-01-09T03:20:12.786Z,92.48
2023-01-09T03:22:45.323Z,92.40
2023-01-09T03:25:13.000Z,92.53
2023-01-09T03:27:39.411Z,92.58
2023-01-09T03:30:29.690Z,91.91
2023-01-09T03:32:57.075Z,92.59
2023-01-09T03:35:41.942Z,92.57
2023-01-09T03:38:14.223Z,91.97
2023-01-09T03:40:44.085Z,92.27
2023-01-09T03:43:14.647Z,92.57
2023-01-09T03:45:42.560Z,92.65
2023-01-09T03:48:09.043Z,92.04
2023-01-09T03:50:35.642Z,91.96
2023-01-09T03:53:03.139Z,92.07
2023-01-09T03:55:31.610Z,91.42
2023-01-09T03:58:18.629Z,91.88
2023-01-09T04:00:46.472Z,92.01
2023-01-09T04:03:12.987Z,92.23
2023-01-09T04:05:41.975Z,92.04
2023-01-09T04:08:27.961Z,91.50
2023-01-09T04:10:54.362Z,91.81
2023-01-09T04:13:20.795Z,91.58
2023-01-09T04:15:47.145Z,92.01
2023-01-09T04:18:13.658Z,91.89
2023-01-09T04:20:55.454Z,91.35
2023-01-09T04:23:22.149Z,91.67
2023-01-09T04:26:01.857Z,91.82
2023-01-09T04:28:43.104Z,92.03
2023-01-09T04:31:15.665Z,91.70
2023-01-09T04:33:51.482Z,91.92
2023-01-09T04:36:17.934Z,91.87
2023-01-09T04:38:44.399Z,91.88
2023-01-09T04:41:10.765Z,91.68
2023-01-09T04:43:37.122Z,91.61
2023-01-09T04:46:03.543Z,92.52
2023-01-09T04:48:30.070Z,92.09
2023-01-09T04:50:56.445Z,92.16
2023-01-09T04:53:23.891Z,92.45
2023-01-09T04:55:50.305Z,92.23
2023-01-09T04:58:16.706Z,92.00
2023-01-09T05:00:43.074Z,91.88
2023-01-09T05:03:09.411Z,92.43
2023-01-09T05:05:35.903Z,92.17
2023-01-09T05:08:17.656Z,92.03
2023-01-09T05:11:07.340Z,92.21
2023-01-09T05:13:34.835Z,92.64
2023-01-09T05:16:06.635Z,91.97
2023-01-09T05:18:33.200Z,92.32
2023-01-09T05:21:08.661Z,92.74
2023-01-09T05:23:50.172Z,92.34
2023-01-09T05:26:16.556Z,92.62
2023-01-09T05:28:47.003Z,91.94
2023-01-09T05:31:13.484Z,92.29
2023-01-09T05:33:39.917Z,92.21
2023-01-09T05:36:06.888Z,92.60
2023-01-09T05:38:33.247Z,92.91
2023-01-09T05:40:59.584Z,92.45
2023-01-09T05:43:26.002Z,92.38
2023-01-09T05:46:00.914Z,92.67
2023-01-09T05:48:28.723Z,92.62
2023-01-09T05:50:55.100Z,92.38
2023-01-09T05:53:21.477Z,92.61
2023-01-09T05:55:48.080Z,92.66
2023-01-09T05:58:20.348Z,92.58
2023-01-09T06:00:48.555Z,92.89
2023-01-09T06:03:15.003Z,92.69
2023-01-09T06:05:41.409Z,92.65
2023-01-09T06:08:07.800Z,92.68
2023-01-09T06:10:34.164Z,92.26
2023-01-09T06:13:00.735Z,92.40
2023-01-09T06:15:27.158Z,92.35
2023-01-09T06:17:53.752Z,92.38
2023-01-09T06:20:20.146Z,92.18
2023-01-09T06:22:46.524Z,91.81
2023-01-09T06:25:13.580Z,92.80
2023-01-09T06:28:07.348Z,92.21
2023-01-09T06:30:53.345Z,92.22
2023-01-09T06:33:20.173Z,92.55
2023-01-09T06:36:12.537Z,92.51
2023-01-09T06:38:38.954Z,92.38
2023-01-09T06:41:29.322Z,92.28
2023-01-09T06:44:15.097Z,92.59
2023-01-09T06:46:42.464Z,92.59
2023-01-09T06:49:26.580Z,92.58
2023-01-09T06:51:55.005Z,92.98
2023-01-09T06:54:21.465Z,92.93
2023-01-09T06:57:23.961Z,93.20
2023-01-09T06:59:52.413Z,93.28
2023-01-09T07:02:37.113Z,93.30
2023-01-09T07:05:21.184Z,93.33
2023-01-09T07:08:35.497Z,92.87
2023-01-09T07:11:01.860Z,93.08
2023-01-09T07:13:28.227Z,93.12
2023-01-09T07:15:54.634Z,93.05
2023-01-09T07:18:21.218Z,93.39
2023-01-09T07:20:48.434Z,93.29
2023-01-09T07:23:15.275Z,93.62
2023-01-09T07:25:42.684Z,93.32
2023-01-09T07:28:19.477Z,93.39
2023-01-09T07:30:45.913Z,93.92
2023-01-09T07:33:12.268Z,93.72
2023-01-09T07:35:38.651Z,93.61
2023-01-09T07:38:05.104Z,94.02
2023-01-09T07:40:41.626Z,93.94
2023-01-09T07:43:08.014Z,94.27
2023-01-09T07:45:34.405Z,94.35
2023-01-09T07:48:00.850Z,94.23
2023-01-09T07:50:45.341Z,94.19
2023-01-09T07:53:11.701Z,94.81
2023-01-09T07:55:38.081Z,94.44
2023-01-09T07:58:04.456Z,94.49
2023-01-09T08:00:32.971Z,94.37
2023-01-09T08:02:59.705Z,94.32
2023-01-09T08:05:26.215Z,94.87
2023-01-09T08:07:52.694Z,94.68
2023-01-09T08:10:22.418Z,94.54
2023-01-09T08:12:49.695Z,94.87
2023-01-09T08:15:50.261Z,95.10
2023-01-09T08:18:16.773Z,94.81
2023-01-09T08:20:43.124Z,95.28
2023-01-09T08:23:09.519Z,94.95
2023-01-09T08:25:35.881Z,95.00
2023-01-09T08:28:02.361Z,94.97
2023-01-09T08:30:28.739Z,94.93
2023-01-09T08:32:55.151Z,94.87
2023-01-09T08:35:21.788Z,95.01
2023-01-09T08:37:49.168Z,95.04
2023-01-09T08:40:16.818Z,95.25
2023-01-09T08:43:03.015Z,95.18
2023-01-09T08:45:48.933Z,95.44
2023-01-09T08:48:15.881Z,95.52
2023-01-09T08:50:43.452Z,95.40
2023-01-09T08:53:10.609Z,95.77
2023-01-09T08:55:36.988Z,95.59
2023-01-09T08:58:03.455Z,95.90
2023-01-09T09:00:29.914Z,96.11
2023-01-09T09:02:58.522Z,96.33
2023-01-09T09:05:26.780Z,95.92
2023-01-09T09:07:54.889Z,96.56
2023-01-09T09:10:26.104Z,96.44
2023-01-09T09:12:55.691Z,96.73
2023-01-09T09:15:26.585Z,96.71
2023-01-09T09:17:58.433Z,96.53
2023-01-09T09:20:28.001Z,96.91
2023-01-09T09:22:54.774Z,97.01
2023-01-09T09:25:21.261Z,96.89
2023-01-09T09:27:47.738Z,97.30
2023-01-09T09:30:16.628Z,97.05
2023-01-09T09:32:43.084Z,96.83
2023-01-09T09:35:10.006Z,97.10
2023-01-09T09:37:37.149Z,96.98
2023-01-09T09:40:17.597Z,97.26
2023-01-09T09:43:33.472Z,97.05
2023-01-09T09:46:11.899Z,96.79
2023-01-09T09:48:45.809Z,97.00
2023-01-09T09:51:21.229Z,97.28
2023-01-09T09:53:55.071Z,96.88
2023-01-09T09:56:23.713Z,97.08
2023-01-09T09:59:04.179Z,96.74
2023-01-09T10:01:40.547Z,96.82
2023-01-09T10:04:12.143Z,96.44
2023-01-09T10:06:45.087Z,96.18
2023-01-09T10:09:45.036Z,96.34
2023-01-09T10:12:27.365Z,96.28
2023-01-09T10:15:03.619Z,96.10
2023-01-09T10:17:56.288Z,96.38
2023-01-09T10:20:49.400Z,96.47
2023-01-09T10:23:25.653Z,96.20
2023-01-09T10:26:03.622Z,96.43
2023-01-09T10:29:02.058Z,96.72
2023-01-09T10:31:44.908Z,96.81
2023-01-09T10:34:24.245Z,96.98
2023-01-09T10:37:11.082Z,97.37
2023-01-09T10:39:52.480Z,97.21
2023-01-09T10:42:44.602Z,97.30
2023-01-09T10:45:17.802Z,96.85
2023-01-09T10:47:45.076Z,96.74
2023-01-09T10:50:21.981Z,96.72
2023-01-09T10:52:53.653Z,95.97
2023-01-09T10:55:57.478Z,96.21
2023-01-09T10:58:23.901Z,95.71
2023-01-09T11:00:51.118Z,95.22
2023-01-09T11:03:23.291Z,95.57
2023-01-09T11:05:55.669Z,95.74
2023-01-09T11:08:41.968Z,94.99
2023-01-09T11:11:09.983Z,95.32
2023-01-09T11:13:38.347Z,94.71
2023-01-09T11:16:11.067Z,93.52
2023-01-09T11:18:58.736Z,91.97
2023-01-09T11:21:28.068Z,91.88
2023-01-09T11:23:55.601Z,92.28
2023-01-09T11:26:25.641Z,92.61
2023-01-09T11:29:06.580Z,92.33
2023-01-09T11:31:33.689Z,92.61
2023-01-09T11:34:00.278Z,91.91
2023-01-09T11:36:27.154Z,91.82
2023-01-09T11:38:56.553Z,90.41
2023-01-09T11:41:27.211Z,90.27
2023-01-09T11:43:56.890Z,90.27
2023-01-09T11:46:43.942Z,90.50
2023-01-09T11:49:22.494Z,90.65
2023-01-09T11:52:15.261Z,91.34
2023-01-09T11:54:48.996Z,91.43
2023-01-09T11:57:15.790Z,91.46
2023-01-09T11:59:42.202Z,91.61
2023-01-09T12:02:23.602Z,91.62
2023-01-09T12:04:55.584Z,92.21
2023-01-09T12:07:34.074Z,92.36
2023-01-09T12:10:25.598Z,92.30
2023-01-09T12:13:06.615Z,92.44
2023-01-09T12:15:41.881Z,92.61
2023-01-09T12:18:36.585Z,93.30
2023-01-09T12:21:11.149Z,93.23
2023-01-09T12:23:53.061Z,93.73
2023-01-09T12:26:24.703Z,92.60
2023-01-09T12:29:03.039Z,93.33
2023-01-09T12:31:43.328Z,93.20
2023-01-09T12:34:53.275Z,92.90
2023-01-09T12:37:49.512Z,93.26
2023-01-09T12:40:16.084Z,92.12
2023-01-09T12:43:20.285Z,92.49
2023-01-09T12:46:15.892Z,92.64
2023-01-09T12:48:52.491Z,93.16
2023-01-09T12:51:33.860Z,93.45
2023-01-09T12:54:15.084Z,93.58
2023-01-09T12:56:48.718Z,93.48
2023-01-09T12:59:30.708Z,93.52
2023-01-09T13:02:14.126Z,94.06
2023-01-09T13:04:51.175Z,94.16
2023-01-09T13:07:22.717Z,94.53
2023-01-09T13:10:04.762Z,94.40
2023-01-09T13:12:36.981Z,94.48
2023-01-09T13:15:35.701Z,94.68
2023-01-09T13:18:19.586Z,95.06
2023-01-09T13:20:49.277Z,95.22
2023-01-09T13:23:27.502Z,95.15
2023-01-09T13:25:58.250Z,94.75
2023-01-09T13:28:31.422Z,94.89
2023-01-09T13:31:43.162Z,94.92
2023-01-09T13:34:22.798Z,94.41
2023-01-09T13:36:52.615Z,94.01
2023-01-09T13:39:21.951Z,93.54
2023-01-09T13:42:12.232Z,93.07
2023-01-09T13:44:39.607Z,92.71
2023-01-09T13:47:22.132Z,93.21
2023-01-09T13:49:48.468Z,93.40
2023-01-09T13:52:36.741Z,93.22
2023-01-09T13:55:25.405Z,92.92
2023-01-09T13:58:04.029Z,93.05
2023-01-09T14:00:36.519Z,93.05
2023-01-09T14:03:26.157Z,92.37
2023-01-09T14:05:52.514Z,92.54
2023-01-09T14:08:21.960Z,92.79
2023-01-09T14:10:49.735Z,92.69
2023-01-09T14:13:28.745Z,92.70
2023-01-09T14:16:05.839Z,92.41
2023-01-09T14:18:35.973Z,92.69
2023-01-09T14:21:12.240Z,92.90
2023-01-09T14:24:06.115Z,92.74
2023-01-09T14:26:48.501Z,93.00
2023-01-09T14:29:43.886Z,92.66
2023-01-09T14:32:22.355Z,92.58
2023-01-09T14:35:00.242Z,92.87
2023-01-09T14:37:30.588Z,92.65
2023-01-09T14:39:58.674Z,92.76
2023-01-09T14:42:29.498Z,93.24
2023-01-09T14:45:01.190Z,93.11
2023-01-09T14:47:30.677Z,93.20
2023-01-09T14:50:16.028Z,92.71
2023-01-09T14:52:52.285Z,92.41
2023-01-09T14:55:48.669Z,92.50
2023-01-09T14:58:18.041Z,92.87
2023-01-09T15:01:10.754Z,92.32
2023-01-09T15:03:41.409Z,92.20
2023-01-09T15:06:14.351Z,92.19
2023-01-09T15:08:45.994Z,92.02
2023-01-09T15:11:13.803Z,92.12
2023-01-09T15:13:48.894Z,91.94
2023-01-09T15:16:22.286Z,92.40
2023-01-09T15:18:54.127Z,92.14
2023-01-09T15:21:24.494Z,92.19
2023-01-09T15:23:51.371Z,92.18
2023-01-09T15:26:28.355Z,92.34
2023-01-09T15:29:10.079Z,91.84
2023-01-09T15:31:39.002Z,92.06
2023-01-09T15:34:05.457Z,91.67
2023-01-09T15:36:32.500Z,91.57
2023-01-09T15:38:59.883Z,91.88
2023-01-09T15:41:47.527Z,91.79
2023-01-09T15:44:26.268Z,91.77
2023-01-09T15:46:57.667Z,91.89
2023-01-09T15:49:24.752Z,91.85
2023-01-09T15:51:51.467Z,91.56
2023-01-09T15:54:26.934Z,91.57
2023-01-09T15:56:53.439Z,91.77
2023-01-09T15:59:27.021Z,92.14
2023-01-09T16:02:21.419Z,91.91
2023-01-09T16:04:49.948Z,92.00
2023-01-09T16:07:19.753Z,92.32
2023-01-09T16:09:47.925Z,92.47
2023-01-09T16:12:19.844Z,92.43
2023-01-09T16:15:01.742Z,92.61
2023-01-09T16:17:29.912Z,92.53
2023-01-09T16:19:58.775Z,92.55
2023-01-09T16:22:30.581Z,92.85
2023-01-09T16:25:02.718Z,93.10
2023-01-09T16:27:33.913Z,92.76
2023-01-09T16:30:25.893Z,93.15
2023-01-09T16:32:52.725Z,93.06
2023-01-09T16:35:28.495Z,93.13
2023-01-09T16:37:54.873Z,93.00
2023-01-09T16:40:26.119Z,92.91
2023-01-09T16:43:01.295Z,93.04
2023-01-09T16:45:31.192Z,93.08
2023-01-09T16:47:58.134Z,93.15
2023-01-09T16:50:31.726Z,93.38
2023-01-09T16:52:59.566Z,93.42
2023-01-09T16:55:26.954Z,93.69
2023-01-09T16:57:53.348Z,93.60
2023-01-09T17:00:20.794Z,93.57
2023-01-09T17:02:48.056Z,93.64
2023-01-09T17:05:14.492Z,93.63
2023-01-09T17:07:40.890Z,94.23
2023-01-09T17:10:19.871Z,93.85
2023-01-09T17:12:46.315Z,94.13
2023-01-09T17:15:12.987Z,94.32
2023-01-09T17:17:39.334Z,93.71
2023-01-09T17:20:34.005Z,94.25
2023-01-09T17:23:00.345Z,94.17
2023-01-09T17:25:45.433Z,94.45
2023-01-09T17:28:33.800Z,94.52
2023-01-09T17:31:01.751Z,94.64
2023-01-09T17:33:28.312Z,94.71
2023-01-09T17:35:55.796Z,94.96
2023-01-09T17:38:22.296Z,94.72
2023-01-09T17:40:52.312Z,94.53
2023-01-09T17:43:18.907Z,94.35
2023-01-09T17:45:45.571Z,94.51
2023-01-09T17:48:18.093Z,94.61
2023-01-09T17:51:22.353Z,94.59
2023-01-09T17:53:49.281Z,94.85
2023-01-09T17:56:18.566Z,95.17
2023-01-09T17:58:49.116Z,95.17
2023-01-09T18:01:17.581Z,95.46
2023-01-09T18:03:46.847Z,95.47
2023-01-09T18:06:28.747Z,95.39
2023-01-09T18:09:07.847Z,95.16
2023-01-09T18:11:34.473Z,95.19
2023-01-09T18:14:01.006Z,95.26
2023-01-09T18:16:28.558Z,95.49
2023-01-09T18:18:57.625Z,95.15
2023-01-09T18:21:26.600Z,95.31
2023-01-09T18:23:53.644Z,95.53
2023-01-09T18:26:20.990Z,95.22
2023-01-09T18:29:06.002Z,95.29
2023-01-09T18:31:33.358Z,95.23
2023-01-09T18:34:02.448Z,95.32
2023-01-09T18:36:48.153Z,94.85
2023-01-09T18:39:17.749Z,95.67
2023-01-09T18:42:14.371Z,95.18
2023-01-09T18:44:40.735Z,95.25
2023-01-09T18:47:07.105Z,95.13
2023-01-09T18:49:38.894Z,95.22
2023-01-09T18:52:07.467Z,95.39
2023-01-09T18:54:38.434Z,95.54
2023-01-09T18:57:05.061Z,95.17
2023-01-09T18:59:41.932Z,95.28
2023-01-09T19:02:25.203Z,95.47
2023-01-09T19:04:51.606Z,95.33
2023-01-09T19:07:19.101Z,95.14
2023-01-09T19:09:45.848Z,95.12
2023-01-09T19:12:12.374Z,95.23
2023-01-09T19:14:38.927Z,95.37
2023-01-09T19:17:05.557Z,95.43
2023-01-09T19:19:33.657Z,94.93
2023-01-09T19:22:00.116Z,95.35
2023-01-09T19:24:26.656Z,95.23
2023-01-09T19:26:53.392Z,94.91
2023-01-09T19:29:19.769Z,95.41
2023-01-09T19:31:46.861Z,94.88
2023-01-09T19:34:13.477Z,94.98
2023-01-09T19:36:40.048Z,95.08
2023-01-09T19:39:09.471Z,94.66
2023-01-09T19:41:35.851Z,94.97
2023-01-09T19:44:02.543Z,94.82
2023-01-09T19:46:30.321Z,94.86
2023-01-09T19:48:58.927Z,94.79
2023-01-09T19:51:28.063Z,94.67
2023-01-09T19:54:03.475Z,94.42
2023-01-09T19:56:32.584Z,94.42
2023-01-09T19:59:01.728Z,94.35
2023-01-09T20:01:30.945Z,94.42
2023-01-09T20:04:04.808Z,94.42
2023-01-09T20:06:31.642Z,94.08
2023-01-09T20:09:00.956Z,94.16
2023-01-09T20:11:30.725Z,94.29
2023-01-09T20:13:57.196Z,94.45
2023-01-09T20:16:30.103Z,94.60
2023-01-09T20:18:58.634Z,94.13
2023-01-09T20:21:26.945Z,94.01
2023-01-09T20:23:55.515Z,94.17
2023-01-09T20:26:22.842Z,94.47
2023-01-09T20:28:49.444Z,94.33
2023-01-09T20:31:18.218Z,94.21
2023-01-09T20:33:46.335Z,94.00
2023-01-09T20:36:12.953Z,94.00
2023-01-09T20:38:41.017Z,93.87
2023-01-09T20:41:22.385Z,94.22
2023-01-09T20:43:55.690Z,94.70
2023-01-09T20:46:24.543Z,94.33
2023-01-09T20:48:51.190Z,94.53
2023-01-09T20:51:18.330Z,94.98
2023-01-09T20:53:46.617Z,94.45
2023-01-09T20:56:13.452Z,94.44
2023-01-09T20:58:42.273Z,94.60
2023-01-09T21:01:11.473Z,94.21
2023-01-09T21:03:38.220Z,93.76
2023-01-09T21:06:10.316Z,94.01
2023-01-09T21:08:37.602Z,93.89
2023-01-09T21:11:05.212Z,93.94
2023-01-09T21:13:31.991Z,93.85
2023-01-09T21:16:04.203Z,93.54
2023-01-09T21:18:31.516Z,93.60
2023-01-09T21:21:01.397Z,94.16
2023-01-09T21:23:27.755Z,94.11
2023-01-09T21:25:54.135Z,93.67
2023-01-09T21:28:21.828Z,93.62
2023-01-09T21:30:51.158Z,94.24
2023-01-09T21:33:23.513Z,93.84
2023-01-09T21:35:54.864Z,93.99
2023-01-09T21:38:22.561Z,93.71
2023-01-09T21:40:53.420Z,93.95
2023-01-09T21:43:48.924Z,93.21
2023-01-09T21:46:36.114Z,93.59
2023-01-09T21:49:12.745Z,93.14
2023-01-09T21:51:41.109Z,93.64
2023-01-09T21:54:08.609Z,93.49
2023-01-09T21:56:35.071Z,93.54
2023-01-09T21:59:06.527Z,93.45
2023-01-09T22:01:33.163Z,94.01
2023-01-09T22:04:05.640Z,93.88
2023-01-09T22:06:32.069Z,93.53
2023-01-09T22:09:04.632Z,94.00
2023-01-09T22:11:30.991Z,93.27
2023-01-09T22:14:05.770Z,93.80
2023-01-09T22:16:32.643Z,93.62
2023-01-09T22:18:59.316Z,93.78
2023-01-09T22:21:29.176Z,94.11
2023-01-09T22:23:55.516Z,94.34
2023-01-09T22:26:22.196Z,94.38
2023-01-09T22:29:24.937Z,94.35
2023-01-09T22:32:08.568Z,94.29
2023-01-09T22:34:49.481Z,94.54
2023-01-09T22:37:16.198Z,94.50
2023-01-09T22:39:42.858Z,94.22
2023-01-09T22:42:09.201Z,94.39
2023-01-09T22:44:36.648Z,94.90
2023-01-09T22:47:03.154Z,94.73
2023-01-09T22:49:41.099Z,94.35
2023-01-09T22:52:28.206Z,94.63
2023-01-09T22:54:54.615Z,94.32
2023-01-09T22:57:21.056Z,94.85
2023-01-09T22:59:47.412Z,94.49
2023-01-09T23:02:13.887Z,94.16
2023-01-09T23:04:40.327Z,94.28
2023-01-09T23:07:42.720Z,94.19
2023-01-09T23:10:10.577Z,94.06
2023-01-09T23:12:37.033Z,93.83
2023-01-09T23:15:05.413Z,94.03
2023-01-09T23:17:31.979Z,93.71
2023-01-09T23:19:58.435Z,93.56
2023-01-09T23:23:17.015Z,93.87
2023-01-09T23:26:41.094Z,93.94
2023-01-09T23:29:13.935Z,93.99
2023-01-09T23:31:40.538Z,94.08
2023-01-09T23:34:15.510Z,93.51
2023-01-09T23:36:42.011Z,94.12
2023-01-09T23:39:10.009Z,93.91
2023-01-09T23:41:55.668Z,93.97
2023-01-09T23:44:22.118Z,93.71
2023-01-09T23:47:00.871Z,93.24
2023-01-09T23:49:28.502Z,93.50
2023-01-09T23:51:56.380Z,93.23
2023-01-09T23:54:25.031Z,93.24
2023-01-09T23:56:53.226Z,93.13
2023-01-09T23:59:24.818Z,92.55
